Date,TemperatureHighF,TemperatureAvgF,TemperatureLowF,DewpointHighF,DewpointAvgF,DewpointLowF,HumidityHigh,HumidityAvg,HumidityLow,PressureMaxIn,PressureMinIn,WindSpeedMaxMPH,WindSpeedAvgMPH,GustSpeedMaxMPH,PrecipitationSumIn
2013-1-2,69.4,69.4,69.3,65.3,65.2,65.0,87,86,86,30.01,30.01,0,0,0,0.00
2013-1-3,69.9,69.9,69.9,65.9,65.9,65.9,87,87,87,30.03,30.03,0,0,0,0.00
2013-1-5,50.6,50.6,50.6,49.2,49.2,49.2,95,95,95,30.29,30.29,1,1,1,0.00
2013-1-7,54.3,54.3,54.3,51.4,51.4,51.4,90,90,90,30.18,30.18,5,5,5,0.00
2013-1-10,68.8,68.8,68.8,68.2,68.2,68.2,98,98,98,30.28,30.28,0,0,0,0.00
2013-1-14,69.0,69.0,69.0,65.3,65.3,65.3,88,88,88,30.13,30.13,0,0,0,0.00
2013-1-16,61.2,61.2,61.2,59.8,59.8,59.8,95,95,95,30.03,30.03,0,0,0,0.00
2013-1-17,62.4,62.4,62.4,61.5,61.5,61.5,97,97,97,29.99,29.99,0,0,0,0.00
2013-1-18,40.9,40.9,40.9,37.0,37.0,37.0,86,86,86,30.21,30.21,5,5,5,0.00
2013-1-20,57.3,57.3,57.3,55.9,55.9,55.9,95,95,95,30.11,30.11,0,0,0,0.00
2013-1-22,54.0,54.0,54.0,45.5,45.5,45.5,73,73,73,30.12,30.12,1,1,1,0.00
2013-1-23,66.3,48.1,39.0,34.7,34.0,33.7,81,64,31,30.32,30.27,0,0,0,0.00
2013-1-24,72.8,66.0,38.2,54.3,51.2,36.6,94,61,45,30.31,30.20,4,1,12,0.00
2013-1-25,74.8,61.2,46.0,57.7,49.4,43.0,97,68,46,30.29,30.15,3,0,7,0.03
2013-1-26,75.5,69.4,58.6,59.6,57.3,54.5,90,66,52,30.26,30.14,2,1,6,0.00
2013-1-27,78.5,66.3,48.7,63.1,57.9,47.3,97,77,53,30.30,30.20,2,0,6,0.00
2013-1-28,79.3,70.6,60.5,66.3,64.1,59.4,96,81,63,30.32,30.22,5,1,11,0.00
2013-1-29,81.6,71.3,63.0,70.0,66.1,61.8,97,85,60,30.21,30.07,5,2,11,0.00
2013-1-30,83.5,75.0,65.1,68.6,65.4,63.6,95,74,56,30.02,29.85,7,3,15,0.00
2013-1-31,63.2,55.8,41.7,49.4,38.0,25.7,89,55,26,30.22,30.05,4,1,10,0.04
2013-2-1,63.1,49.3,35.0,40.0,35.8,31.8,90,63,32,30.34,30.23,2,0,8,0.04
2013-2-2,70.9,56.7,35.9,47.5,39.5,33.3,92,58,27,30.30,30.13,5,1,8,0.00
2013-2-3,70.5,60.7,34.1,53.7,44.7,31.7,93,58,35,30.17,30.04,6,2,8,0.00
2013-2-4,67.7,54.7,34.8,49.3,39.9,33.0,95,61,32,30.12,30.03,2,0,6,0.00
2013-2-5,75.8,61.1,36.1,53.3,47.9,34.2,95,65,40,30.09,29.97,4,0,11,0.00
2013-2-6,73.1,66.6,54.8,63.6,60.1,52.5,93,80,66,30.10,30.03,3,1,6,0.00
2013-2-7,80.4,75.5,63.7,66.8,64.1,61.6,93,68,58,30.04,29.82,7,3,14,0.00
2013-2-8,78.9,69.6,56.8,62.6,58.8,54.5,93,70,51,30.06,29.93,5,2,11,0.00
2013-2-9,74.3,63.9,51.8,57.9,54.6,50.7,96,73,55,30.19,30.12,6,2,11,0.00
2013-2-10,79.0,70.6,54.5,61.0,58.7,51.2,93,67,52,30.25,30.13,5,2,14,0.00
2013-2-11,82.4,74.2,57.1,65.0,62.3,54.8,96,68,51,30.19,30.04,6,2,10,0.00
2013-2-12,83.8,73.6,59.8,68.8,65.4,58.7,97,77,57,30.07,29.90,6,2,13,0.00
2013-2-13,83.1,71.3,62.2,70.6,66.9,60.1,95,87,64,29.94,29.81,9,2,19,0.49
2013-2-14,66.1,61.0,55.4,61.3,58.2,54.0,96,91,75,30.05,29.90,3,0,5,0.31
2013-2-15,69.2,58.1,50.1,57.0,51.7,48.2,97,81,55,30.07,29.94,4,1,11,0.00
2013-2-16,67.9,55.2,45.4,50.5,43.4,28.5,96,67,43,30.11,29.90,9,2,17,0.00
2013-2-17,54.1,43.7,29.0,27.4,21.3,14.2,81,45,21,30.34,30.24,5,1,17,0.00
2013-2-18,68.8,53.9,28.2,47.1,37.0,25.8,93,56,37,30.36,30.23,4,1,17,0.00
2013-2-19,78.5,65.2,45.6,58.4,54.7,44.0,96,71,47,30.17,30.04,6,2,12,0.00
2013-2-20,73.0,64.5,53.9,58.0,54.4,49.6,89,71,56,30.13,30.01,5,1,12,0.00
2013-2-21,82.4,70.2,53.3,64.3,58.2,48.9,93,68,50,30.10,29.97,3,0,7,0.00
2013-2-22,85.9,73.0,62.9,69.2,66.2,61.4,96,81,52,30.06,29.96,3,1,10,0.03
2013-2-23,86.0,76.4,69.0,70.1,67.7,64.8,96,76,51,29.98,29.85,8,3,13,0.00
2013-2-24,75.5,70.7,65.8,70.6,68.3,63.4,96,92,83,29.94,29.88,3,0,7,0.14
2013-2-25,84.9,75.3,62.9,71.6,67.3,61.7,97,78,55,29.88,29.74,4,1,10,0.00
2013-2-26,76.0,69.6,64.3,71.3,66.4,60.7,95,90,73,29.83,29.70,7,2,11,0.70
2013-2-27,75.7,63.0,53.3,57.0,53.7,48.8,92,73,47,29.96,29.86,3,1,6,0.00
2013-2-28,73.4,64.2,52.2,56.9,50.3,45.4,94,62,40,29.99,29.86,6,2,19,0.00
2013-3-1,66.0,54.7,44.3,44.1,40.7,33.2,88,61,33,30.00,29.88,6,2,12,0.02
2013-3-2,58.1,50.6,40.5,39.7,34.4,30.0,85,56,35,30.03,29.94,11,3,18,0.00
2013-3-3,50.5,45.4,36.4,34.9,32.4,30.5,82,61,52,30.10,30.00,5,1,14,0.00
2013-3-4,65.9,52.6,28.7,37.7,31.0,24.6,94,48,25,30.22,30.10,5,1,13,0.00
2013-3-5,75.9,62.6,38.7,58.2,48.4,34.0,95,63,37,30.17,29.99,6,3,13,0.00
2013-3-6,62.2,52.1,46.0,58.0,36.2,31.1,86,56,34,30.11,29.98,5,2,15,0.01
2013-3-7,67.1,56.3,40.4,41.8,38.7,35.3,82,53,33,30.22,30.12,4,1,15,0.00
2013-3-8,75.8,59.3,35.1,48.0,42.0,33.3,95,58,25,30.21,30.09,4,1,10,0.03
2013-3-9,75.3,66.1,48.1,52.6,50.2,43.1,95,59,39,30.22,30.12,4,1,6,0.00
2013-3-10,78.5,72.4,61.6,58.6,56.7,54.5,82,58,46,30.16,30.05,5,2,12,0.00
2013-3-11,78.1,71.5,54.8,61.7,59.7,52.5,94,67,53,30.03,29.89,9,2,14,0.00
2013-3-12,67.2,60.0,54.6,62.8,56.5,52.3,92,88,79,30.02,29.86,3,0,7,0.09
2013-3-13,71.9,61.2,51.8,52.2,42.1,33.2,92,53,25,30.16,30.01,5,1,17,0.00
2013-3-14,67.6,60.4,45.7,35.0,31.4,27.2,66,35,23,30.26,30.15,6,2,15,0.00
2013-3-15,72.5,61.5,35.7,46.7,39.2,31.5,95,48,28,30.28,30.12,5,1,10,0.02
2013-3-16,79.7,65.3,42.3,54.0,45.0,40.2,95,54,27,30.17,30.02,5,2,11,0.00
2013-3-17,77.0,67.8,44.7,59.5,53.5,40.0,96,62,44,30.12,29.97,5,1,11,0.00
2013-3-18,78.7,72.9,60.7,67.4,64.4,59.3,95,75,63,30.03,29.88,6,1,12,0.05
2013-3-19,83.1,74.8,63.9,66.3,63.4,60.7,97,69,50,30.01,29.86,2,0,11,0.02
2013-3-20,76.2,66.6,57.2,67.0,61.3,53.5,95,84,64,29.96,29.76,4,1,9,0.21
2013-3-21,70.9,58.6,43.7,55.7,41.2,30.3,96,58,23,29.96,29.85,7,1,12,0.01
2013-3-22,78.4,66.5,43.8,61.4,51.8,40.0,96,63,37,30.00,29.88,3,1,12,0.30
2013-3-23,84.7,76.1,64.0,73.6,69.3,63.1,97,80,61,29.91,29.75,10,3,22,0.30
2013-3-24,81.5,73.9,66.4,73.6,69.7,63.8,96,87,76,29.81,29.60,14,4,22,0.32
2013-3-25,68.0,59.2,50.1,62.2,46.6,35.8,94,66,31,30.02,29.71,5,1,11,0.00
2013-3-26,59.0,48.7,39.9,41.9,31.7,21.7,76,54,25,30.23,30.01,9,2,13,0.00
2013-3-27,63.7,47.1,34.4,36.1,32.6,29.3,88,62,29,30.30,30.19,5,1,13,0.00
2013-3-28,72.1,52.7,33.5,44.0,35.1,29.7,95,59,22,30.29,30.16,5,0,11,0.00
2013-3-29,73.7,64.2,42.9,52.0,40.7,34.3,96,46,26,30.32,30.18,3,1,5,0.02
2013-3-30,78.6,76.1,73.1,53.7,51.1,49.3,48,42,38,30.22,30.08,4,2,13,0.00
2013-3-31,82.9,74.5,54.4,59.6,55.3,51.5,94,54,36,30.13,29.97,7,3,10,0.00
2013-4-1,68.3,63.6,61.0,64.6,61.2,58.7,94,92,88,30.00,29.98,3,0,5,0.00
2013-4-2,82.9,70.0,56.2,65.0,55.8,49.7,97,64,35,30.08,29.98,4,1,13,0.03
2013-4-3,83.7,74.9,60.1,68.2,64.9,51.4,94,73,55,30.07,29.92,8,2,15,0.23
2013-4-4,72.8,70.1,68.0,68.7,67.0,64.6,96,90,84,29.99,29.84,6,1,11,0.06
2013-4-5,76.2,68.2,57.0,67.5,62.5,54.6,96,83,55,29.99,29.79,6,2,13,0.00
2013-4-6,77.8,65.5,50.6,60.5,56.4,48.7,95,74,51,30.13,30.02,6,2,15,0.01
2013-4-7,76.6,68.7,60.1,63.8,60.3,57.0,91,76,56,30.15,30.09,4,2,10,0.00
2013-4-8,83.6,78.6,68.4,63.2,60.5,54.7,80,55,40,30.12,30.02,4,1,11,0.00
2013-4-9,83.8,73.1,60.3,69.4,63.2,57.4,97,73,53,30.15,30.06,5,1,12,0.02
2013-4-10,87.6,77.0,56.0,69.8,63.7,54.3,97,67,44,30.07,29.94,3,1,10,0.00
2013-4-11,89.8,80.9,72.5,73.8,71.1,69.1,92,74,55,29.97,29.79,13,2,19,0.32
2013-4-12,82.0,76.9,72.3,74.5,72.3,69.1,96,86,73,29.87,29.78,7,1,17,0.00
2013-4-13,86.8,77.7,67.1,72.2,68.1,57.4,97,74,47,29.97,29.85,3,1,17,0.00
2013-4-14,86.6,74.0,65.6,75.1,67.1,58.1,91,80,64,29.97,29.83,5,1,17,0.19
2013-4-15,88.8,80.2,66.4,70.4,67.1,64.0,93,65,51,30.06,29.93,3,0,6,0.00
2013-4-16,87.1,77.1,67.1,73.4,69.1,65.3,97,77,59,30.14,30.05,4,1,9,0.01
2013-4-17,85.2,75.2,66.5,70.6,66.9,62.5,97,77,49,30.14,30.02,6,2,13,0.00
2013-4-18,87.8,78.9,65.3,71.5,67.5,64.1,97,70,49,30.03,29.92,4,1,9,0.00
2013-4-19,85.4,77.4,69.9,74.6,69.6,65.0,97,78,60,29.98,29.88,5,2,10,0.19
2013-4-20,65.8,60.2,57.4,62.1,58.2,55.1,96,93,87,30.15,29.98,5,1,7,0.14
2013-4-21,77.5,70.6,59.3,70.6,66.6,56.4,96,87,78,30.14,30.01,6,2,13,0.15
2013-4-22,74.7,69.1,63.9,69.5,66.1,61.2,97,90,81,30.08,29.99,8,3,14,0.03
2013-4-23,82.5,72.5,60.5,65.8,61.3,58.8,96,70,48,30.10,30.02,7,2,14,0.00
2013-4-24,85.7,73.7,53.9,65.7,61.1,52.1,97,68,41,30.13,30.04,3,1,9,0.00
2013-4-25,86.4,79.6,69.5,69.3,64.2,58.5,90,61,40,30.18,30.09,2,0,5,0.00
2013-4-26,88.1,77.9,61.5,68.8,65.7,59.6,95,68,48,30.22,30.13,5,2,9,0.02
2013-4-27,70.2,64.1,61.6,66.1,61.7,59.6,95,92,87,30.21,30.15,0,0,1,0.00
2013-10-13,83.3,83.3,83.3,63.8,62.9,62.1,52,50,49,30.04,30.04,1,0,1,0.00
2013-10-14,84.1,77.9,62.7,70.8,67.7,61.5,97,72,57,30.02,29.91,8,3,15,0.00
2013-10-15,77.5,74.9,71.6,72.1,70.8,69.7,94,87,82,29.94,29.88,0,0,4,0.02
2013-10-16,86.2,79.3,70.7,73.2,70.3,68.2,96,75,59,29.96,29.87,1,0,4,0.00
2013-10-17,86.3,77.4,66.6,74.5,69.8,65.4,96,79,61,29.96,29.86,1,0,4,0.00
2013-10-18,86.7,77.8,68.3,75.4,71.8,67.1,97,83,60,29.97,29.86,2,0,4,0.02
2013-10-19,89.5,78.6,68.8,76.0,72.1,67.3,97,82,59,29.92,29.83,2,0,8,0.00
2013-10-20,86.1,79.0,72.5,76.8,73.2,69.1,96,83,69,29.95,29.86,6,2,8,0.00
2013-10-21,90.2,83.1,71.6,78.4,75.0,68.2,92,77,62,29.97,29.87,4,0,7,0.00
2013-10-22,89.4,80.2,72.6,77.0,73.1,70.1,97,80,58,29.92,29.79,6,1,13,0.05
2013-10-23,80.4,72.6,62.6,68.4,61.5,53.8,96,70,45,29.94,29.84,2,1,5,0.01
2013-10-24,70.7,64.1,54.7,57.5,54.1,51.2,89,71,51,30.15,30.08,3,1,8,0.00
2013-10-25,79.1,73.6,49.3,57.3,55.3,47.9,95,55,44,30.21,30.13,3,1,11,0.01
2013-10-26,77.7,66.3,55.5,58.3,53.8,51.0,87,67,41,30.20,30.08,3,1,6,0.00
2013-10-27,77.6,64.6,48.3,60.8,53.1,46.6,97,70,40,30.13,30.04,4,1,7,0.00
2013-10-28,82.1,69.8,47.5,64.9,60.5,45.9,97,75,48,30.17,30.09,4,1,9,0.00
2013-10-29,83.6,74.9,57.4,68.4,65.4,56.0,97,74,55,30.21,30.12,7,3,13,0.02
2013-10-30,83.2,75.7,64.7,70.4,67.2,63.8,97,76,58,30.21,30.08,4,1,10,0.00
2013-10-31,86.3,76.5,61.9,70.9,66.0,60.6,97,72,50,30.10,29.94,6,1,12,0.00
2013-11-1,82.9,73.2,68.9,72.4,69.5,67.4,96,89,67,29.95,29.84,3,1,11,0.02
2013-11-2,69.1,65.0,59.3,67.9,62.8,57.6,96,93,90,29.95,29.82,1,0,1,0.87
2013-11-3,67.0,62.0,59.3,59.3,53.6,51.0,85,74,62,30.11,30.05,5,2,10,0.01
2013-11-4,79.8,70.5,61.4,65.7,61.5,56.3,92,75,49,30.17,30.10,8,3,18,0.00
2013-11-5,83.5,74.2,65.9,69.4,67.1,64.4,96,80,59,30.15,30.07,8,3,21,0.04
2013-11-6,75.9,69.9,64.3,70.4,66.9,62.2,96,90,81,30.10,30.02,6,1,21,0.00
2013-11-7,76.6,69.8,63.9,69.8,67.1,62.1,97,91,79,30.04,29.94,1,0,3,0.00
2013-11-8,74.7,66.3,59.5,65.1,60.2,53.3,95,81,71,30.12,29.98,9,4,15,0.01
2013-11-9,80.5,71.6,59.4,66.3,63.0,57.4,95,75,60,30.16,30.09,4,0,10,0.00
2013-11-10,80.5,77.3,64.1,69.4,67.2,60.5,88,71,63,30.14,30.06,3,1,10,0.00
2013-11-11,79.1,74.3,63.5,66.7,65.6,62.3,96,76,65,30.15,30.05,2,1,5,0.00
2013-11-12,80.3,71.3,63.6,70.5,65.6,62.4,97,83,66,30.10,29.98,3,1,7,0.00
2013-11-13,63.3,57.2,52.4,51.7,49.0,47.1,83,74,62,30.32,30.21,12,8,21,0.00
2013-11-14,76.1,65.3,46.3,59.8,55.1,44.7,95,71,56,30.30,30.18,5,1,13,0.00
2013-11-15,69.7,64.3,59.4,64.6,62.2,58.3,96,93,82,30.19,30.07,4,0,9,0.11
2013-11-16,72.4,68.1,64.7,70.6,66.8,63.5,97,96,93,30.11,30.03,3,0,4,0.09
2013-11-17,84.6,77.7,68.1,73.8,71.6,66.9,97,82,66,30.06,29.96,4,1,11,0.00
2013-11-18,79.0,73.3,65.1,72.1,69.0,63.6,96,87,75,29.98,29.88,1,0,5,0.00
2013-11-19,69.4,66.2,62.0,68.1,63.1,59.0,97,90,84,29.97,29.88,5,2,13,0.00
2013-11-20,78.1,72.8,66.1,72.1,69.3,64.6,95,89,80,30.08,29.98,3,1,8,0.02
2013-11-21,77.8,72.2,68.3,71.6,69.3,67.1,96,91,78,30.18,30.10,7,1,14,0.42
2013-11-22,80.8,77.0,71.2,72.9,70.6,67.6,97,81,73,30.19,30.09,3,1,7,0.01
2013-11-23,82.1,75.1,64.4,70.0,66.5,61.9,96,76,54,30.10,29.98,2,0,4,0.00
2013-11-24,67.7,64.5,59.0,62.0,59.3,51.8,93,83,72,30.18,30.02,11,5,18,0.00
2013-11-25,74.9,69.0,63.5,60.6,59.3,56.0,87,72,57,30.23,30.06,3,1,17,0.00
2013-11-26,81.9,72.5,63.5,73.4,68.6,59.6,96,88,73,30.06,29.70,6,2,13,0.25
2013-11-27,73.2,59.3,40.0,71.4,55.0,35.8,96,86,71,30.19,29.67,9,3,19,0.64
2013-11-28,61.8,48.1,33.5,50.7,41.7,30.0,92,79,64,30.34,30.19,7,2,15,0.00
2013-11-29,69.9,57.5,48.2,60.1,52.5,46.0,95,84,69,30.36,30.27,9,4,13,0.00
2013-11-30,74.4,62.4,54.2,64.9,58.5,50.7,95,88,71,30.30,30.17,9,4,14,0.00
2013-12-1,73.0,63.3,58.6,66.0,60.4,56.5,97,90,75,30.19,29.96,4,1,10,0.00
2013-12-2,72.6,63.6,58.4,61.7,58.0,52.0,97,84,49,29.96,29.80,4,0,7,0.00
2013-12-3,76.1,65.2,51.2,63.0,59.3,49.5,96,82,63,29.97,29.86,1,0,3,0.00
2013-12-4,82.1,68.5,58.4,70.8,63.0,57.0,96,84,54,30.07,29.94,2,0,4,0.00
2013-12-5,82.2,70.1,57.9,69.9,63.7,56.5,97,82,61,30.15,30.06,3,0,8,0.00
2013-12-6,84.6,77.4,70.5,72.4,69.6,67.4,95,78,60,30.16,30.06,5,1,12,0.02
2013-12-7,82.8,71.6,62.6,70.5,65.0,59.6,96,81,56,30.21,30.11,1,0,6,0.00
2013-12-8,83.3,69.2,58.1,71.9,63.2,56.4,97,83,56,30.21,30.07,4,1,11,0.00
2013-12-9,83.3,73.9,61.9,72.3,67.5,59.8,96,81,65,30.16,30.05,5,1,11,0.00
2013-12-10,83.1,72.5,60.5,70.6,66.0,58.5,96,81,59,30.17,30.03,5,1,12,0.00
2013-12-11,79.6,67.1,56.2,68.9,61.0,52.7,93,81,68,30.24,30.13,5,1,9,0.00
2013-12-12,66.7,58.2,50.8,60.6,48.2,33.8,93,73,31,30.30,30.18,4,1,10,0.00
2013-12-13,73.6,58.9,42.3,58.2,51.0,39.3,95,77,50,30.27,30.11,3,0,9,0.01
2013-12-14,81.4,73.6,55.7,71.3,67.4,52.8,96,81,69,30.10,29.89,7,2,13,0.00
2013-12-15,73.5,65.9,52.6,70.7,62.1,49.1,95,88,75,30.11,29.82,4,1,14,0.37
2013-12-16,62.2,51.1,40.3,51.5,44.3,37.6,93,79,49,30.22,30.10,4,1,8,0.00
2013-12-17,68.9,50.7,36.5,52.1,43.2,34.4,96,78,52,30.25,30.13,6,1,12,0.00
2013-12-18,68.5,50.9,36.0,49.7,42.3,34.2,95,75,47,30.28,30.18,7,1,12,0.00
2013-12-19,73.9,54.9,36.2,59.9,47.6,34.4,96,79,48,30.27,30.16,3,0,3,0.00
2013-12-20,80.8,65.2,48.1,65.1,57.7,46.2,98,79,57,30.19,30.08,6,1,10,0.01
2013-12-21,84.1,74.5,61.5,71.3,67.6,57.3,93,80,63,30.12,30.00,8,2,14,0.00
2013-12-22,83.9,74.8,67.6,72.7,69.1,64.9,96,83,66,30.11,30.03,5,1,12,0.00
2013-12-23,85.5,75.3,67.6,73.8,69.8,65.8,97,84,61,30.14,30.04,5,1,12,0.00
2013-12-24,72.4,61.4,47.3,70.6,52.2,36.4,98,75,38,30.25,30.07,5,1,11,0.05
2013-12-25,74.1,56.6,40.3,59.3,48.8,36.7,94,76,54,30.25,30.14,4,1,6,0.00
2013-12-30,68.3,61.3,55.4,56.9,53.2,49.5,91,76,51,30.18,30.07,3,1,7,0.00
2013-12-31,68.5,59.7,52.8,54.3,51.9,49.1,94,77,53,30.29,30.15,7,1,11,0.00
2014-1-1,61.7,59.3,56.1,60.5,57.4,52.8,96,93,83,30.25,30.05,4,1,9,0.04
2014-1-2,79.3,66.2,56.4,72.6,64.4,54.4,97,94,78,30.04,29.79,7,1,18,0.41